Time;durP1;ratioP1;P1;durP2;ratioP2;P2;SDS_P1;SDS_P2;PMS_P1;PMS_P2;Temp;Humidity;BMP_temperature;BMP_pressure;BME280_temperature;BME280_humidity;BME280_pressure;Samples;Min_cycle;Max_cycle;Signal;HPM_P1;HPM_P2
2023/06/18 00:01:24;;;;;;;6.75;4.75;;;;;;;;;;4400147;32;316896;-87
2023/06/18 00:03:51;;;;;;;7.53;5.82;;;;;;;;;;4390356;32;316718;-83
2023/06/18 00:06:18;;;;;;;12.25;5.87;;;;;;;;;;4398710;32;316691;-87
2023/06/18 00:08:47;;;;;;;6.87;5.90;;;;;;;;;;4400730;32;317770;-86
2023/06/18 00:11:15;;;;;;;8.23;5.57;;;;;;;;;;4388049;32;415902;-85
2023/06/18 00:13:42;;;;;;;12.98;6.43;;;;;;;;;;4401537;32;316791;-87
2023/06/18 00:16:10;;;;;;;6.45;5.50;;;;;;;;;;4388576;32;318031;-86
2023/06/18 00:18:37;;;;;;;7.15;5.60;;;;;;;;;;4401217;32;316814;-82
2023/06/18 00:21:07;;;;;;;9.77;5.72;;;;;;;;;;4390895;32;316551;-86
2023/06/18 00:23:35;;;;;;;6.53;5.93;;;;;;;;;;4400627;32;333369;-87
2023/06/18 00:26:04;;;;;;;9.18;7.00;;;;;;;;;;4389422;32;316808;-86
2023/06/18 00:28:32;;;;;;;13.07;9.35;;;;;;;;;;4399038;32;316800;-88
2023/06/18 00:31:01;;;;;;;22.30;13.13;;;;;;;;;;4390599;32;317728;-86
2023/06/18 00:33:29;;;;;;;15.02;11.12;;;;;;;;;;4401333;32;318701;-87
2023/06/18 00:35:57;;;;;;;18.98;13.48;;;;;;;;;;4389714;32;331776;-87
2023/06/18 00:38:26;;;;;;;24.67;15.93;;;;;;;;;;4400907;32;318867;-87
2023/06/18 00:40:54;;;;;;;11.85;10.10;;;;;;;;;;4389640;32;319000;-86
2023/06/18 00:43:23;;;;;;;14.95;9.88;;;;;;;;;;4400738;32;318796;-85
2023/06/18 00:45:50;;;;;;;13.90;8.85;;;;;;;;;;4391162;32;317760;-87
2023/06/18 00:48:18;;;;;;;19.40;8.85;;;;;;;;;;4400188;32;317716;-88
2023/06/18 00:50:46;;;;;;;13.15;7.70;;;;;;;;;;4401266;32;317708;-88
2023/06/18 00:53:13;;;;;;;15.75;8.35;;;;;;;;;;4387960;32;417501;-87
2023/06/18 00:55:41;;;;;;;11.02;8.35;;;;;;;;;;4398467;32;317656;-86
2023/06/18 00:58:09;;;;;;;12.13;8.00;;;;;;;;;;4390489;32;317914;-87
2023/06/18 01:00:38;;;;;;;13.07;8.93;;;;;;;;;;4401413;32;317686;-82
2023/06/18 01:03:09;;;;;;;11.93;9.18;;;;;;;;;;4390294;32;317647;-86
2023/06/18 01:05:37;;;;;;;10.82;8.55;;;;;;;;;;4400109;32;317691;-86
2023/06/18 01:08:06;;;;;;;10.77;7.93;;;;;;;;;;4390848;32;317822;-86
2023/06/18 01:10:38;;;;;;;15.18;9.73;;;;;;;;;;4401295;32;317966;-87
2023/06/18 01:13:08;;;;;;;10.73;8.32;;;;;;;;;;4388326;32;317946;-86
2023/06/18 01:15:35;;;;;;;12.25;8.85;;;;;;;;;;4400498;32;318077;-87
2023/06/18 01:18:06;;;;;;;9.73;8.73;;;;;;;;;;4388969;32;317674;-87
2023/06/18 01:20:40;;;;;;;9.80;8.90;;;;;;;;;;4404076;32;316979;-87
2023/06/18 01:23:14;;;;;;;10.40;8.43;;;;;;;;;;4390667;32;316613;-87
2023/06/18 01:25:43;;;;;;;10.82;9.10;;;;;;;;;;4402821;32;349009;-86
2023/06/18 01:28:11;;;;;;;11.45;10.35;;;;;;;;;;4391662;32;317925;-87
2023/06/18 01:30:39;;;;;;;10.93;9.70;;;;;;;;;;4400996;32;318866;-87
2023/06/18 01:33:12;;;;;;;10.70;9.68;;;;;;;;;;4393175;32;317736;-83
2023/06/18 01:35:40;;;;;;;14.87;9.02;;;;;;;;;;4403636;32;317752;-85
2023/06/18 01:38:23;;;;;;;11.20;10.10;;;;;;;;;;4391235;32;317622;-83
2023/06/18 01:40:56;;;;;;;11.00;9.77;;;;;;;;;;4391853;32;318892;-87
2023/06/18 01:43:28;;;;;;;13.65;9.88;;;;;;;;;;4401446;32;317810;-87
2023/06/18 01:46:02;;;;;;;14.73;10.40;;;;;;;;;;4389954;32;354108;-87
2023/06/18 01:48:37;;;;;;;13.05;10.60;;;;;;;;;;4400887;32;329405;-86
2023/06/18 01:51:07;;;;;;;14.15;10.68;;;;;;;;;;4392429;32;319141;-87
2023/06/18 01:53:37;;;;;;;11.43;10.32;;;;;;;;;;4417442;32;318378;-85
2023/06/18 01:56:09;;;;;;;12.20;10.90;;;;;;;;;;4426181;26;317620;-93
2023/06/18 01:58:36;;;;;;;15.30;11.15;;;;;;;;;;4421952;32;318422;-94
2023/06/18 02:01:03;;;;;;;13.68;11.15;;;;;;;;;;4410891;32;318583;-93
2023/06/18 02:03:34;;;;;;;13.68;11.18;;;;;;;;;;4424607;32;318510;-94
2023/06/18 02:06:01;;;;;;;12.18;10.73;;;;;;;;;;4414821;32;318600;-94
2023/06/18 02:08:28;;;;;;;18.95;11.55;;;;;;;;;;4422195;32;318478;-93
2023/06/18 02:10:57;;;;;;;13.85;11.63;;;;;;;;;;4412981;32;318391;-93
2023/06/18 02:13:24;;;;;;;13.05;11.68;;;;;;;;;;4420928;32;318577;-95
2023/06/18 02:15:52;;;;;;;14.15;12.65;;;;;;;;;;4374220;32;360570;-94
2023/06/18 02:18:19;;;;;;;14.68;12.43;;;;;;;;;;4407533;32;317396;-94
2023/06/18 02:20:50;;;;;;;19.67;13.62;;;;;;;;;;4415340;32;318445;-93
2023/06/18 02:23:17;;;;;;;13.05;11.65;;;;;;;;;;4407329;32;318697;-94
2023/06/18 02:25:44;;;;;;;14.63;12.70;;;;;;;;;;4420491;32;318428;-94
2023/06/18 02:28:12;;;;;;;16.25;12.80;;;;;;;;;;4389578;32;318625;-94
2023/06/18 02:30:39;;;;;;;14.70;13.32;;;;;;;;;;4419429;32;318604;-94
2023/06/18 02:33:07;;;;;;;14.32;12.88;;;;;;;;;;4407561;32;318596;-95
2023/06/18 02:35:34;;;;;;;18.27;13.75;;;;;;;;;;4420554;32;318490;-94
2023/06/18 02:38:04;;;;;;;14.38;12.88;;;;;;;;;;4402195;32;318694;-94
2023/06/18 02:40:35;;;;;;;14.98;12.37;;;;;;;;;;4420340;32;318681;-95
2023/06/18 02:43:05;;;;;;;14.90;13.43;;;;;;;;;;4410874;32;318874;-93
2023/06/18 02:45:32;;;;;;;14.77;13.27;;;;;;;;;;4418392;32;345329;-94
2023/06/18 02:48:00;;;;;;;17.27;14.52;;;;;;;;;;4409710;32;318524;-93
2023/06/18 02:50:28;;;;;;;14.75;13.35;;;;;;;;;;4418942;32;318461;-93
2023/06/18 02:52:55;;;;;;;19.77;14.87;;;;;;;;;;4410038;32;318839;-92
2023/06/18 02:55:24;;;;;;;19.45;15.88;;;;;;;;;;4418202;32;318641;-94
2023/06/18 02:57:53;;;;;;;16.02;14.30;;;;;;;;;;4409752;32;318456;-94
2023/06/18 03:00:21;;;;;;;15.93;13.73;;;;;;;;;;4419692;32;318580;-93
2023/06/18 03:02:48;;;;;;;17.45;12.88;;;;;;;;;;4409361;32;318563;-94
2023/06/18 03:05:16;;;;;;;17.02;14.35;;;;;;;;;;4417142;32;318590;-94
2023/06/18 03:07:45;;;;;;;14.82;13.32;;;;;;;;;;4418402;32;318606;-94
2023/06/18 03:10:12;;;;;;;16.83;15.02;;;;;;;;;;4399027;32;416611;-94
2023/06/18 03:12:42;;;;;;;23.95;18.12;;;;;;;;;;4393080;32;318607;-93
2023/06/18 03:15:11;;;;;;;20.48;17.85;;;;;;;;;;4410164;32;318431;-94
2023/06/18 03:17:39;;;;;;;19.80;17.77;;;;;;;;;;4417487;32;318708;-94
2023/06/18 03:20:07;;;;;;;35.35;23.42;;;;;;;;;;4403337;32;318237;-95
2023/06/18 03:22:34;;;;;;;29.67;23.40;;;;;;;;;;4418943;32;318446;-93
2023/06/18 03:25:01;;;;;;;24.70;22.08;;;;;;;;;;4408777;32;318666;-93
2023/06/18 03:27:28;;;;;;;26.42;22.62;;;;;;;;;;4418890;32;319215;-94
2023/06/18 03:29:57;;;;;;;18.80;16.90;;;;;;;;;;4397267;32;318477;-93
2023/06/18 03:32:24;;;;;;;17.33;15.13;;;;;;;;;;4431022;32;318440;-95
2023/06/18 03:34:53;;;;;;;16.58;14.02;;;;;;;;;;4403328;32;318365;-95
2023/06/18 03:37:23;;;;;;;19.45;15.13;;;;;;;;;;4419604;32;318471;-92
2023/06/18 03:39:52;;;;;;;23.73;14.70;;;;;;;;;;4409496;32;318423;-92
2023/06/18 03:42:19;;;;;;;25.15;16.05;;;;;;;;;;4419535;32;318380;-95
2023/06/18 03:44:46;;;;;;;16.62;14.82;;;;;;;;;;4420341;32;318519;-94
2023/06/18 03:47:15;;;;;;;15.82;14.32;;;;;;;;;;4406901;32;417739;-94
2023/06/18 03:49:42;;;;;;;17.25;15.43;;;;;;;;;;4418733;32;318887;-92
2023/06/18 03:52:10;;;;;;;16.90;15.07;;;;;;;;;;4408493;32;318686;-93
2023/06/18 03:54:38;;;;;;;15.15;13.35;;;;;;;;;;4419598;32;318728;-93
2023/06/18 03:57:06;;;;;;;18.37;14.35;;;;;;;;;;4396144;32;318600;-94
2023/06/18 03:59:33;;;;;;;18.27;15.20;;;;;;;;;;4421336;32;318393;-94
2023/06/18 04:02:03;;;;;;;14.85;13.43;;;;;;;;;;4413982;32;330032;-93
2023/06/18 04:04:33;;;;;;;16.60;13.85;;;;;;;;;;4419039;32;318643;-95
2023/06/18 04:07:00;;;;;;;16.65;13.40;;;;;;;;;;4408162;32;339299;-94
2023/06/18 04:09:27;;;;;;;16.65;14.45;;;;;;;;;;4418238;32;340731;-93
2023/06/18 04:11:55;;;;;;;16.87;14.80;;;;;;;;;;4410621;32;354102;-92
2023/06/18 04:14:23;;;;;;;19.20;14.55;;;;;;;;;;4421146;32;318613;-93
2023/06/18 04:16:51;;;;;;;16.30;14.60;;;;;;;;;;4409838;32;318442;-95
2023/06/18 04:19:23;;;;;;;16.60;14.93;;;;;;;;;;4418546;32;318411;-94
2023/06/18 04:21:53;;;;;;;14.93;13.50;;;;;;;;;;4415955;32;318507;-94
2023/06/18 04:24:21;;;;;;;16.70;13.88;;;;;;;;;;4424239;32;318170;-93
2023/06/18 04:26:49;;;;;;;15.45;13.82;;;;;;;;;;4414800;32;318518;-94
2023/06/18 04:29:16;;;;;;;18.20;14.70;;;;;;;;;;4418837;32;318506;-93
2023/06/18 04:31:46;;;;;;;16.30;14.70;;;;;;;;;;4418230;32;318643;-95
2023/06/18 04:34:12;;;;;;;15.90;13.98;;;;;;;;;;4404711;32;390408;-95
2023/06/18 04:36:40;;;;;;;17.45;14.55;;;;;;;;;;4419628;32;318818;-94
2023/06/18 04:39:08;;;;;;;14.63;13.13;;;;;;;;;;4409900;32;318560;-93
2023/06/18 04:41:37;;;;;;;17.67;13.35;;;;;;;;;;4426127;32;318321;-93
2023/06/18 04:44:04;;;;;;;15.60;12.77;;;;;;;;;;4409162;32;318346;-96
2023/06/18 04:46:31;;;;;;;17.83;15.93;;;;;;;;;;4420415;32;317373;-94
2023/06/18 04:48:59;;;;;;;18.87;16.48;;;;;;;;;;4407951;32;318405;-95
2023/06/18 04:51:29;;;;;;;20.20;16.48;;;;;;;;;;4418679;32;318686;-95
2023/06/18 04:53:56;;;;;;;18.67;14.57;;;;;;;;;;4412940;32;318568;-94
2023/06/18 04:56:26;;;;;;;16.27;14.07;;;;;;;;;;4424904;32;318858;-95
2023/06/18 04:58:54;;;;;;;19.80;16.05;;;;;;;;;;4407531;32;322732;-93
2023/06/18 05:01:23;;;;;;;16.05;14.45;;;;;;;;;;4423083;32;318489;-92
2023/06/18 05:03:50;;;;;;;18.10;16.25;;;;;;;;;;4413044;32;318339;-92
2023/06/18 05:06:17;;;;;;;18.40;15.95;;;;;;;;;;4405814;32;318583;-93
2023/06/18 05:08:46;;;;;;;16.92;14.95;;;;;;;;;;4435679;32;318268;-94
2023/06/18 05:11:14;;;;;;;18.42;15.25;;;;;;;;;;4411018;32;421055;-93
2023/06/18 05:13:46;;;;;;;18.35;14.00;;;;;;;;;;4423669;32;318486;-94
2023/06/18 05:16:13;;;;;;;16.75;14.50;;;;;;;;;;4411279;32;420561;-92
2023/06/18 05:18:41;;;;;;;15.27;13.68;;;;;;;;;;4423346;32;318456;-93
2023/06/18 05:21:08;;;;;;;17.85;14.60;;;;;;;;;;4412474;32;318382;-94
2023/06/18 05:23:35;;;;;;;20.05;15.23;;;;;;;;;;4421537;32;318565;-96
2023/06/18 05:26:02;;;;;;;18.40;14.80;;;;;;;;;;4416715;32;318461;-94
2023/06/18 05:28:31;;;;;;;17.10;15.30;;;;;;;;;;4422497;32;335208;-94
2023/06/18 05:31:01;;;;;;;16.65;13.05;;;;;;;;;;4410996;32;318596;-94
2023/06/18 05:33:28;;;;;;;14.07;12.50;;;;;;;;;;4417282;32;319356;-95
2023/06/18 05:35:55;;;;;;;14.50;12.97;;;;;;;;;;4411494;32;318721;-94
2023/06/18 05:38:22;;;;;;;14.65;12.35;;;;;;;;;;4428226;32;318427;-92
2023/06/18 05:40:49;;;;;;;17.25;13.65;;;;;;;;;;4409897;32;317359;-92
2023/06/18 05:43:16;;;;;;;15.40;12.57;;;;;;;;;;4416874;32;317515;-94
2023/06/18 05:45:43;;;;;;;17.67;12.50;;;;;;;;;;4421179;32;318726;-94
2023/06/18 05:48:16;;;;;;;14.13;12.37;;;;;;;;;;4407247;32;337044;-92
2023/06/18 05:50:44;;;;;;;13.02;11.65;;;;;;;;;;4408123;32;318520;-95
2023/06/18 05:53:11;;;;;;;21.35;13.77;;;;;;;;;;4408203;32;318487;-95
2023/06/18 05:55:38;;;;;;;22.80;15.00;;;;;;;;;;4419276;32;318702;-94
2023/06/18 05:58:05;;;;;;;18.27;13.68;;;;;;;;;;4410655;32;318383;-95
2023/06/18 06:00:35;;;;;;;21.15;14.50;;;;;;;;;;4421263;32;318756;-93
2023/06/18 06:03:03;;;;;;;16.33;14.00;;;;;;;;;;4414218;32;346452;-95
2023/06/18 06:05:31;;;;;;;15.38;13.85;;;;;;;;;;4414146;32;318582;-94
2023/06/18 06:07:58;;;;;;;17.08;14.00;;;;;;;;;;4417370;32;318603;-94
2023/06/18 06:10:28;;;;;;;17.92;16.02;;;;;;;;;;4420882;32;318621;-94
2023/06/18 06:12:57;;;;;;;24.52;14.85;;;;;;;;;;4405280;32;317546;-95
2023/06/18 06:15:26;;;;;;;15.52;13.62;;;;;;;;;;4411208;32;318620;-96
2023/06/18 06:17:54;;;;;;;18.48;14.50;;;;;;;;;;4419704;32;318257;-96
2023/06/18 06:20:23;;;;;;;23.92;15.40;;;;;;;;;;4410019;32;318439;-96
2023/06/18 06:22:52;;;;;;;17.90;15.43;;;;;;;;;;4418409;32;340203;-95
2023/06/18 06:25:21;;;;;;;19.20;15.40;;;;;;;;;;4412285;32;318574;-95
2023/06/18 06:27:50;;;;;;;16.25;13.80;;;;;;;;;;4406911;32;318508;-95
2023/06/18 06:30:17;;;;;;;15.85;14.27;;;;;;;;;;4401351;32;317516;-96
2023/06/18 06:32:44;;;;;;;18.87;14.40;;;;;;;;;;4432174;32;318372;-96
2023/06/18 06:35:11;;;;;;;15.77;14.02;;;;;;;;;;4410470;32;318580;-94
2023/06/18 06:37:39;;;;;;;19.02;15.55;;;;;;;;;;4426887;32;318828;-94
2023/06/18 06:40:09;;;;;;;18.70;15.60;;;;;;;;;;4404383;32;318454;-95
2023/06/18 06:42:36;;;;;;;20.70;15.95;;;;;;;;;;4416537;32;318486;-94
2023/06/18 06:45:06;;;;;;;17.75;15.90;;;;;;;;;;4419578;32;318545;-95
2023/06/18 06:47:33;;;;;;;19.90;15.95;;;;;;;;;;4408697;32;419306;-96
2023/06/18 06:50:01;;;;;;;17.95;15.88;;;;;;;;;;4419441;32;318342;-95
2023/06/18 06:52:28;;;;;;;17.58;15.77;;;;;;;;;;4416996;32;318281;-96
2023/06/18 06:54:55;;;;;;;18.25;16.30;;;;;;;;;;4421394;32;318461;-95
2023/06/18 06:57:24;;;;;;;20.50;16.75;;;;;;;;;;4414979;32;321409;-95
2023/06/18 06:59:52;;;;;;;17.58;15.75;;;;;;;;;;4407805;32;318520;-94
2023/06/18 07:02:19;;;;;;;21.42;16.77;;;;;;;;;;4395251;32;318663;-95
2023/06/18 07:04:49;;;;;;;28.23;17.45;;;;;;;;;;4419557;32;318677;-95
2023/06/18 07:07:17;;;;;;;29.80;17.33;;;;;;;;;;4406517;32;318656;-94
2023/06/18 07:09:44;;;;;;;23.17;17.73;;;;;;;;;;4420580;32;318557;-94
2023/06/18 07:12:14;;;;;;;23.35;17.83;;;;;;;;;;4397767;32;318647;-93
2023/06/18 07:14:43;;;;;;;19.98;16.02;;;;;;;;;;4419951;32;318450;-93
2023/06/18 07:17:11;;;;;;;19.35;15.35;;;;;;;;;;4411753;32;317506;-94
2023/06/18 07:19:39;;;;;;;15.73;13.82;;;;;;;;;;4418729;32;318473;-94
2023/06/18 07:22:08;;;;;;;16.75;14.10;;;;;;;;;;4404903;32;318744;-94
2023/06/18 07:24:35;;;;;;;18.98;14.50;;;;;;;;;;4426977;32;318555;-95
2023/06/18 07:27:03;;;;;;;16.60;14.52;;;;;;;;;;4424122;32;318143;-94
2023/06/18 07:29:31;;;;;;;18.90;13.60;;;;;;;;;;4406417;32;387526;-92
2023/06/18 07:32:00;;;;;;;18.52;14.15;;;;;;;;;;4423617;32;318703;-92
2023/06/18 07:34:29;;;;;;;18.25;15.02;;;;;;;;;;4409449;32;318546;-94
2023/06/18 07:37:01;;;;;;;19.58;14.25;;;;;;;;;;4418671;32;318245;-92
2023/06/18 07:39:28;;;;;;;22.83;13.88;;;;;;;;;;4407851;32;318316;-94
2023/06/18 07:41:55;;;;;;;17.80;14.70;;;;;;;;;;4418809;32;318408;-95
2023/06/18 07:44:23;;;;;;;21.37;14.67;;;;;;;;;;4397867;32;318573;-94
2023/06/18 07:46:51;;;;;;;15.43;13.82;;;;;;;;;;4423430;32;318315;-94
2023/06/18 07:49:21;;;;;;;17.42;14.18;;;;;;;;;;4417583;32;318335;-96
2023/06/18 07:51:50;;;;;;;16.56;13.90;;;;;;;;;;4425691;32;318810;-93
2023/06/18 07:54:19;;;;;;;15.50;12.73;;;;;;;;;;4407324;32;318984;-93
2023/06/18 07:56:47;;;;;;;16.20;13.73;;;;;;;;;;4413535;32;317517;-93
2023/06/18 07:59:14;;;;;;;17.73;12.57;;;;;;;;;;4409300;32;318489;-94
2023/06/18 08:01:41;;;;;;;16.50;12.98;;;;;;;;;;4422190;32;318562;-93
2023/06/18 08:04:09;;;;;;;13.80;12.07;;;;;;;;;;4408996;32;363450;-93
2023/06/18 08:06:43;;;;;;;14.90;12.10;;;;;;;;;;4420111;32;318579;-94
2023/06/18 08:09:10;;;;;;;13.52;12.18;;;;;;;;;;4402091;32;318610;-94
2023/06/18 08:11:38;;;;;;;21.25;12.63;;;;;;;;;;4428389;32;318839;-92
2023/06/18 08:14:06;;;;;;;13.05;11.48;;;;;;;;;;4419855;32;318768;-93
2023/06/18 08:16:33;;;;;;;13.18;11.45;;;;;;;;;;4405576;32;317714;-93
2023/06/18 08:19:01;;;;;;;12.27;11.07;;;;;;;;;;4417297;32;318541;-95
2023/06/18 08:21:29;;;;;;;13.62;12.10;;;;;;;;;;4414043;32;318325;-94
2023/06/18 08:23:58;;;;;;;12.13;10.93;;;;;;;;;;4420143;32;318469;-94
2023/06/18 08:26:32;;;;;;;13.90;12.15;;;;;;;;;;4407761;32;318554;-94
2023/06/18 08:28:59;;;;;;;11.43;10.23;;;;;;;;;;4418269;32;317590;-93
2023/06/18 08:31:26;;;;;;;12.57;11.43;;;;;;;;;;4404079;32;318413;-95
2023/06/18 08:33:53;;;;;;;15.68;12.07;;;;;;;;;;4419747;32;318605;-94
2023/06/18 08:36:25;;;;;;;14.65;11.82;;;;;;;;;;4408503;32;339588;-95
2023/06/18 08:38:52;;;;;;;13.45;12.05;;;;;;;;;;4421241;32;317604;-94
2023/06/18 08:41:27;;;;;;;12.77;11.32;;;;;;;;;;4413818;32;318734;-94
2023/06/18 08:43:56;;;;;;;12.60;10.43;;;;;;;;;;4423333;32;318608;-94
2023/06/18 08:46:24;;;;;;;14.00;10.40;;;;;;;;;;4403580;32;317562;-93
2023/06/18 08:48:58;;;;;;;17.15;10.82;;;;;;;;;;4429607;32;317443;-95
2023/06/18 08:51:26;;;;;;;16.27;11.23;;;;;;;;;;4411285;32;318571;-94
2023/06/18 08:54:00;;;;;;;14.23;11.32;;;;;;;;;;4416077;32;346960;-94
2023/06/18 08:56:32;;;;;;;19.02;11.12;;;;;;;;;;4411722;32;318574;-94
2023/06/18 08:58:59;;;;;;;17.55;12.55;;;;;;;;;;4421202;32;318687;-94
2023/06/18 09:01:27;;;;;;;17.17;11.30;;;;;;;;;;4411812;32;318672;-95
2023/06/18 09:04:01;;;;;;;16.80;10.93;;;;;;;;;;4421234;32;318519;-95
2023/06/18 09:06:29;;;;;;;13.02;10.70;;;;;;;;;;4395752;32;317609;-94
2023/06/18 09:09:00;;;;;;;11.07;10.05;;;;;;;;;;4420945;32;339016;-94
2023/06/18 09:11:29;;;;;;;11.43;10.00;;;;;;;;;;4412615;32;319078;-94
2023/06/18 09:13:56;;;;;;;14.68;10.15;;;;;;;;;;4426431;32;357071;-94
2023/06/18 09:16:23;;;;;;;11.07;9.43;;;;;;;;;;4411731;32;318631;-94
2023/06/18 09:18:54;;;;;;;17.87;10.15;;;;;;;;;;4413067;32;317670;-95
2023/06/18 09:21:40;;;;;;;14.45;10.10;;;;;;;;;;4418202;32;318705;-95
2023/06/18 09:24:08;;;;;;;11.95;10.75;;;;;;;;;;4402158;32;318393;-93
2023/06/18 09:26:38;;;;;;;11.70;10.43;;;;;;;;;;4421044;32;318568;-94
2023/06/18 09:29:07;;;;;;;11.27;9.43;;;;;;;;;;4429734;32;318379;-96
2023/06/18 09:31:35;;;;;;;12.57;9.57;;;;;;;;;;4399403;32;420049;-96
2023/06/18 09:34:13;;;;;;;12.93;10.02;;;;;;;;;;4413610;32;317595;-95
2023/06/18 09:36:41;;;;;;;9.63;8.52;;;;;;;;;;4407478;32;390277;-93
2023/06/18 09:39:20;;;;;;;10.88;9.48;;;;;;;;;;4410040;32;316535;-95
2023/06/18 09:42:05;;;;;;;10.27;9.15;;;;;;;;;;4421894;32;317572;-94
2023/06/18 09:44:32;;;;;;;10.07;8.60;;;;;;;;;;4408816;32;421647;-94
2023/06/18 09:47:00;;;;;;;10.70;9.65;;;;;;;;;;4423826;32;317795;-94
2023/06/18 09:49:29;;;;;;;9.02;8.10;;;;;;;;;;4414290;32;317260;-92
2023/06/18 09:51:58;;;;;;;11.80;8.75;;;;;;;;;;4424203;32;316388;-94
2023/06/18 09:54:43;;;;;;;7.85;6.95;;;;;;;;;;4400409;32;341411;-94
2023/06/18 09:57:20;;;;;;;13.77;9.43;;;;;;;;;;4403675;32;316532;-93
2023/06/18 09:59:48;;;;;;;11.18;7.75;;;;;;;;;;4426126;32;317631;-93
2023/06/18 10:02:26;;;;;;;10.25;8.27;;;;;;;;;;4413251;32;317413;-93
2023/06/18 10:04:54;;;;;;;11.35;9.00;;;;;;;;;;4420004;32;317304;-93
2023/06/18 10:07:24;;;;;;;9.35;6.80;;;;;;;;;;4414074;32;317432;-95
2023/06/18 10:09:52;;;;;;;11.82;7.70;;;;;;;;;;4415814;32;316609;-95
2023/06/18 10:12:27;;;;;;;9.13;8.18;;;;;;;;;;4416319;32;317357;-95
2023/06/18 10:14:59;;;;;;;8.48;7.28;;;;;;;;;;4428466;32;315184;-94
2023/06/18 10:17:36;;;;;;;12.93;7.75;;;;;;;;;;4414320;32;316462;-95
2023/06/18 10:20:11;;;;;;;9.80;7.55;;;;;;;;;;4423312;32;318013;-94
2023/06/18 10:22:52;;;;;;;8.25;7.43;;;;;;;;;;4410162;32;417793;-94
2023/06/18 10:25:19;;;;;;;9.03;7.37;;;;;;;;;;4393369;32;316925;-93
2023/06/18 10:27:49;;;;;;;13.85;7.78;;;;;;;;;;4412464;32;316394;-93
2023/06/18 10:30:20;;;;;;;8.00;7.20;;;;;;;;;;4404054;32;318521;-93
2023/06/18 10:32:48;;;;;;;8.50;7.70;;;;;;;;;;4420949;32;316414;-94
2023/06/18 10:35:18;;;;;;;8.67;7.50;;;;;;;;;;4403492;32;316733;-95
2023/06/18 10:37:47;;;;;;;8.55;6.85;;;;;;;;;;4415538;32;315203;-95
2023/06/18 10:40:15;;;;;;;8.68;6.28;;;;;;;;;;4374194;32;316496;-95
2023/06/18 10:42:42;;;;;;;7.65;6.18;;;;;;;;;;4421509;32;316702;-95
2023/06/18 10:45:16;;;;;;;7.85;7.05;;;;;;;;;;4411293;32;316630;-94
2023/06/18 10:47:46;;;;;;;7.30;6.60;;;;;;;;;;4407359;32;317418;-93
2023/06/18 10:50:16;;;;;;;9.43;6.45;;;;;;;;;;4402504;32;316638;-95
2023/06/18 10:52:44;;;;;;;6.68;5.78;;;;;;;;;;4420347;32;315217;-94
2023/06/18 10:55:13;;;;;;;7.37;6.37;;;;;;;;;;4410460;32;316521;-94
2023/06/18 10:57:46;;;;;;;9.48;6.60;;;;;;;;;;4411800;32;316592;-94
2023/06/18 11:00:17;;;;;;;10.95;6.40;;;;;;;;;;4398071;32;316611;-94
2023/06/18 11:02:52;;;;;;;8.30;5.72;;;;;;;;;;4420045;32;316008;-94
2023/06/18 11:05:49;;;;;;;9.63;6.25;;;;;;;;;;4410022;32;316381;-95
2023/06/18 11:08:18;;;;;;;6.22;5.62;;;;;;;;;;4396592;32;321351;-94
2023/06/18 11:10:50;;;;;;;11.07;6.00;;;;;;;;;;4405222;32;316607;-94
2023/06/18 11:13:20;;;;;;;7.53;5.90;;;;;;;;;;4410139;32;317444;-94
2023/06/18 11:16:14;;;;;;;7.22;6.45;;;;;;;;;;4413224;32;316492;-95
2023/06/18 11:18:42;;;;;;;6.50;5.90;;;;;;;;;;4397528;32;417087;-93
2023/06/18 11:21:14;;;;;;;6.28;5.25;;;;;;;;;;4409875;32;342956;-95
2023/06/18 11:23:42;;;;;;;6.30;5.22;;;;;;;;;;4407091;32;316382;-92
2023/06/18 11:26:14;;;;;;;8.10;5.97;;;;;;;;;;4401752;32;316467;-93
2023/06/18 11:28:42;;;;;;;5.65;5.05;;;;;;;;;;4420256;32;316188;-94
2023/06/18 11:31:10;;;;;;;6.70;5.15;;;;;;;;;;4410713;32;316525;-93
2023/06/18 11:33:40;;;;;;;6.68;5.30;;;;;;;;;;4414329;32;316404;-94
2023/06/18 11:36:10;;;;;;;6.18;5.30;;;;;;;;;;4410090;32;316675;-92
2023/06/18 11:38:37;;;;;;;8.02;5.07;;;;;;;;;;4405485;32;316758;-95
2023/06/18 11:41:08;;;;;;;7.93;4.75;;;;;;;;;;4419282;32;316543;-93
2023/06/18 11:43:47;;;;;;;6.18;5.07;;;;;;;;;;4394188;32;418583;-93
2023/06/18 11:46:27;;;;;;;6.05;5.45;;;;;;;;;;4408344;32;323561;-94
2023/06/18 11:48:58;;;;;;;9.85;5.97;;;;;;;;;;4406201;32;316766;-92
2023/06/18 11:51:30;;;;;;;7.68;5.65;;;;;;;;;;4409595;32;316541;-95
2023/06/18 11:54:02;;;;;;;12.27;5.15;;;;;;;;;;4405604;32;316477;-96
2023/06/18 11:56:37;;;;;;;9.75;5.80;;;;;;;;;;4377037;32;317562;-94
2023/06/18 11:59:04;;;;;;;15.52;4.85;;;;;;;;;;4418807;32;316360;-94
2023/06/18 12:01:33;;;;;;;17.58;5.87;;;;;;;;;;4387625;32;389965;-95
2023/06/18 12:04:06;;;;;;;5.87;4.20;;;;;;;;;;4420930;32;317601;-94
2023/06/18 12:06:33;;;;;;;12.63;5.35;;;;;;;;;;4380503;32;417556;-94
2023/06/18 12:09:09;;;;;;;7.47;5.12;;;;;;;;;;4419946;32;317432;-93
2023/06/18 12:11:51;;;;;;;6.12;5.35;;;;;;;;;;4379400;32;417491;-92
2023/06/18 12:14:30;;;;;;;7.18;5.20;;;;;;;;;;4384318;32;316605;-91
2023/06/18 12:17:06;;;;;;;6.07;4.75;;;;;;;;;;4419172;32;316465;-93
2023/06/18 12:19:38;;;;;;;4.60;4.20;;;;;;;;;;4374347;32;389129;-93
2023/06/18 12:22:05;;;;;;;10.88;5.53;;;;;;;;;;4419515;32;316751;-93
2023/06/18 12:24:34;;;;;;;6.47;4.90;;;;;;;;;;4388089;32;317341;-94
2023/06/18 12:27:02;;;;;;;7.07;4.90;;;;;;;;;;4409841;32;316194;-94
2023/06/18 12:29:30;;;;;;;8.48;5.07;;;;;;;;;;4398717;32;337428;-94
2023/06/18 12:32:08;;;;;;;7.10;4.50;;;;;;;;;;4403155;32;316302;-95
2023/06/18 12:34:36;;;;;;;9.40;4.75;;;;;;;;;;4384920;32;388219;-95
2023/06/18 12:37:03;;;;;;;7.90;5.15;;;;;;;;;;4404721;32;316444;-93
2023/06/18 12:39:32;;;;;;;7.87;5.03;;;;;;;;;;4400600;32;316213;-93
2023/06/18 12:42:01;;;;;;;17.08;4.65;;;;;;;;;;4402072;32;316501;-92
2023/06/18 12:44:31;;;;;;;8.10;4.55;;;;;;;;;;4393579;32;317575;-95
2023/06/18 12:47:00;;;;;;;6.55;3.70;;;;;;;;;;4403214;32;316818;-94
2023/06/18 12:49:27;;;;;;;5.75;3.97;;;;;;;;;;4392944;32;316583;-94
2023/06/18 12:51:56;;;;;;;7.68;3.95;;;;;;;;;;4408299;32;315527;-94
2023/06/18 12:54:27;;;;;;;6.27;4.37;;;;;;;;;;4399387;32;316221;-95
2023/06/18 12:56:58;;;;;;;4.50;3.60;;;;;;;;;;4405171;32;316477;-95
2023/06/18 12:59:29;;;;;;;5.30;3.62;;;;;;;;;;4394161;32;316227;-93
2023/06/18 13:01:57;;;;;;;4.72;4.10;;;;;;;;;;4403820;32;316473;-94
2023/06/18 13:04:25;;;;;;;13.13;4.15;;;;;;;;;;4394746;32;316528;-93
2023/06/18 13:06:55;;;;;;;7.72;4.90;;;;;;;;;;4397115;32;317591;-93
2023/06/18 13:09:22;;;;;;;9.02;5.05;;;;;;;;;;4387225;32;316211;-93
2023/06/18 13:11:49;;;;;;;8.10;4.10;;;;;;;;;;4402345;32;316307;-92
2023/06/18 13:14:20;;;;;;;6.78;4.87;;;;;;;;;;4394687;32;316534;-94
2023/06/18 13:16:48;;;;;;;9.80;4.45;;;;;;;;;;4406642;32;316627;-95
2023/06/18 13:19:16;;;;;;;5.87;4.25;;;;;;;;;;4395253;32;316231;-93
2023/06/18 13:21:45;;;;;;;4.87;3.80;;;;;;;;;;4406210;32;316339;-95
2023/06/18 13:24:14;;;;;;;6.45;4.68;;;;;;;;;;4397864;32;316378;-94
2023/06/18 13:26:43;;;;;;;6.82;4.47;;;;;;;;;;4414302;32;315996;-92
2023/06/18 13:29:15;;;;;;;5.65;3.90;;;;;;;;;;4396681;32;316527;-94
2023/06/18 13:31:43;;;;;;;6.75;3.92;;;;;;;;;;4420654;32;316353;-95
2023/06/18 13:34:12;;;;;;;5.78;4.40;;;;;;;;;;4408049;32;316422;-93
2023/06/18 13:36:41;;;;;;;7.57;4.30;;;;;;;;;;4420999;32;316291;-95
2023/06/18 13:39:08;;;;;;;13.02;4.82;;;;;;;;;;4410369;32;316438;-95
2023/06/18 13:41:37;;;;;;;5.20;4.68;;;;;;;;;;4422196;32;317479;-94
2023/06/18 13:44:04;;;;;;;8.50;4.70;;;;;;;;;;4411399;32;316543;-95
2023/06/18 13:46:31;;;;;;;5.30;4.75;;;;;;;;;;4373782;32;417916;-92
2023/06/18 13:49:02;;;;;;;8.30;4.50;;;;;;;;;;4421603;32;316349;-94
2023/06/18 13:51:31;;;;;;;14.15;5.60;;;;;;;;;;4412247;32;316830;-94
2023/06/18 13:54:00;;;;;;;7.15;5.60;;;;;;;;;;4408641;32;317350;-95
2023/06/18 13:56:30;;;;;;;9.60;5.40;;;;;;;;;;4411837;32;316308;-94
2023/06/18 13:58:58;;;;;;;7.87;5.32;;;;;;;;;;4413387;32;341085;-94
2023/06/18 14:01:26;;;;;;;10.98;6.50;;;;;;;;;;4398838;32;316791;-96
2023/06/18 14:03:53;;;;;;;8.23;6.03;;;;;;;;;;4411063;32;317586;-94
2023/06/18 14:06:22;;;;;;;6.78;6.05;;;;;;;;;;4403218;32;316421;-93
2023/06/18 14:08:52;;;;;;;10.65;5.85;;;;;;;;;;4420544;32;316422;-93
2023/06/18 14:11:20;;;;;;;8.82;5.78;;;;;;;;;;4398937;32;317968;-93
2023/06/18 14:13:47;;;;;;;7.53;6.10;;;;;;;;;;4420783;32;316451;-93
2023/06/18 14:16:19;;;;;;;8.93;6.47;;;;;;;;;;4412241;32;316545;-93
2023/06/18 14:18:46;;;;;;;8.60;5.97;;;;;;;;;;4417717;32;316312;-92
2023/06/18 14:21:17;;;;;;;7.93;6.47;;;;;;;;;;4414815;32;316541;-94
2023/06/18 14:23:44;;;;;;;8.25;6.35;;;;;;;;;;4410268;32;316847;-93
2023/06/18 14:26:12;;;;;;;8.45;6.32;;;;;;;;;;4404180;32;316076;-93